sensor_id;sensor_type;location;lat;lon;timestamp;P1;durP1;ratioP1;P2;durP2;ratioP2
32946;SDS011;54465;51.230;22.504;2023-02-15T00:02:22;32.70;;;17.83;;
32946;SDS011;54465;51.230;22.504;2023-02-15T00:07:24;35.90;;;18.65;;
32946;SDS011;54465;51.230;22.504;2023-02-15T00:12:24;30.40;;;18.70;;
32946;SDS011;54465;51.230;22.504;2023-02-15T00:17:28;32.95;;;18.48;;
32946;SDS011;54465;51.230;22.504;2023-02-15T00:22:28;33.35;;;19.50;;
32946;SDS011;54465;51.230;22.504;2023-02-15T00:27:29;33.13;;;18.50;;
32946;SDS011;54465;51.230;22.504;2023-02-15T00:32:29;31.67;;;17.73;;
32946;SDS011;54465;51.230;22.504;2023-02-15T00:37:30;36.33;;;18.17;;
32946;SDS011;54465;51.230;22.504;2023-02-15T00:42:30;30.42;;;18.40;;
32946;SDS011;54465;51.230;22.504;2023-02-15T00:47:31;33.67;;;18.05;;
32946;SDS011;54465;51.230;22.504;2023-02-15T00:52:32;29.55;;;18.02;;
32946;SDS011;54465;51.230;22.504;2023-02-15T00:57:32;32.58;;;18.73;;
32946;SDS011;54465;51.230;22.504;2023-02-15T01:02:33;30.60;;;18.05;;
32946;SDS011;54465;51.230;22.504;2023-02-15T01:07:35;35.25;;;19.33;;
32946;SDS011;54465;51.230;22.504;2023-02-15T01:12:36;35.45;;;19.27;;
32946;SDS011;54465;51.230;22.504;2023-02-15T01:17:36;33.97;;;19.02;;
32946;SDS011;54465;51.230;22.504;2023-02-15T01:22:37;39.13;;;18.77;;
32946;SDS011;54465;51.230;22.504;2023-02-15T01:27:38;34.17;;;18.45;;
32946;SDS011;54465;51.230;22.504;2023-02-15T01:32:40;36.85;;;18.50;;
32946;SDS011;54465;51.230;22.504;2023-02-15T01:37:41;33.47;;;18.05;;
32946;SDS011;54465;51.230;22.504;2023-02-15T01:42:42;32.63;;;17.27;;
32946;SDS011;54465;51.230;22.504;2023-02-15T01:48:31;32.42;;;16.92;;
32946;SDS011;54465;51.230;22.504;2023-02-15T01:53:34;37.08;;;17.83;;
32946;SDS011;54465;51.230;22.504;2023-02-15T01:58:41;32.08;;;18.30;;
32946;SDS011;54465;51.230;22.504;2023-02-15T02:08:47;30.30;;;17.92;;
32946;SDS011;54465;51.230;22.504;2023-02-15T02:13:48;35.55;;;19.00;;
32946;SDS011;54465;51.230;22.504;2023-02-15T02:19:06;39.25;;;17.00;;
32946;SDS011;54465;51.230;22.504;2023-02-15T02:29:53;32.40;;;17.45;;
32946;SDS011;54465;51.230;22.504;2023-02-15T02:35:01;32.93;;;17.73;;
32946;SDS011;54465;51.230;22.504;2023-02-15T02:45:45;36.75;;;17.42;;
32946;SDS011;54465;51.230;22.504;2023-02-15T02:50:51;32.78;;;17.10;;
32946;SDS011;54465;51.230;22.504;2023-02-15T03:01:01;39.45;;;17.67;;
32946;SDS011;54465;51.230;22.504;2023-02-15T03:06:07;38.60;;;18.00;;
32946;SDS011;54465;51.230;22.504;2023-02-15T03:11:11;30.67;;;17.25;;
32946;SDS011;54465;51.230;22.504;2023-02-15T03:16:12;34.20;;;18.00;;
32946;SDS011;54465;51.230;22.504;2023-02-15T03:21:33;32.00;;;16.00;;
32946;SDS011;54465;51.230;22.504;2023-02-15T03:26:41;33.30;;;16.73;;
32946;SDS011;54465;51.230;22.504;2023-02-15T03:31:44;32.75;;;17.05;;
32946;SDS011;54465;51.230;22.504;2023-02-15T03:47:23;30.75;;;15.90;;
32946;SDS011;54465;51.230;22.504;2023-02-15T03:52:28;30.75;;;17.10;;
32946;SDS011;54465;51.230;22.504;2023-02-15T03:57:30;25.73;;;14.55;;
32946;SDS011;54465;51.230;22.504;2023-02-15T04:02:55;27.13;;;13.88;;
32946;SDS011;54465;51.230;22.504;2023-02-15T04:08:17;22.88;;;13.30;;
32946;SDS011;54465;51.230;22.504;2023-02-15T04:13:21;22.85;;;12.57;;
32946;SDS011;54465;51.230;22.504;2023-02-15T04:18:23;25.75;;;13.60;;
32946;SDS011;54465;51.230;22.504;2023-02-15T04:23:42;21.88;;;13.25;;
32946;SDS011;54465;51.230;22.504;2023-02-15T04:29:01;24.20;;;12.85;;
32946;SDS011;54465;51.230;22.504;2023-02-15T04:34:02;26.67;;;14.10;;
32946;SDS011;54465;51.230;22.504;2023-02-15T04:39:02;22.15;;;12.85;;
32946;SDS011;54465;51.230;22.504;2023-02-15T04:44:03;23.08;;;13.73;;
32946;SDS011;54465;51.230;22.504;2023-02-15T04:49:03;22.65;;;13.25;;
32946;SDS011;54465;51.230;22.504;2023-02-15T04:54:04;22.55;;;13.00;;
32946;SDS011;54465;51.230;22.504;2023-02-15T04:59:04;25.63;;;14.70;;
32946;SDS011;54465;51.230;22.504;2023-02-15T05:04:05;28.20;;;16.02;;
32946;SDS011;54465;51.230;22.504;2023-02-15T05:09:05;26.38;;;14.45;;
32946;SDS011;54465;51.230;22.504;2023-02-15T05:14:06;25.05;;;13.57;;
32946;SDS011;54465;51.230;22.504;2023-02-15T05:19:07;30.02;;;15.10;;
32946;SDS011;54465;51.230;22.504;2023-02-15T05:24:07;26.88;;;14.70;;
32946;SDS011;54465;51.230;22.504;2023-02-15T05:29:28;28.73;;;15.35;;
32946;SDS011;54465;51.230;22.504;2023-02-15T05:34:29;30.13;;;15.55;;
32946;SDS011;54465;51.230;22.504;2023-02-15T05:39:29;26.85;;;16.83;;
32946;SDS011;54465;51.230;22.504;2023-02-15T05:44:29;24.38;;;14.90;;
32946;SDS011;54465;51.230;22.504;2023-02-15T05:49:30;24.55;;;13.85;;
32946;SDS011;54465;51.230;22.504;2023-02-15T05:54:30;23.65;;;14.32;;
32946;SDS011;54465;51.230;22.504;2023-02-15T05:59:31;27.40;;;14.85;;
32946;SDS011;54465;51.230;22.504;2023-02-15T06:04:31;25.77;;;15.55;;
32946;SDS011;54465;51.230;22.504;2023-02-15T06:09:32;24.85;;;13.00;;
32946;SDS011;54465;51.230;22.504;2023-02-15T06:14:32;24.92;;;13.80;;
32946;SDS011;54465;51.230;22.504;2023-02-15T06:19:33;25.15;;;13.77;;
32946;SDS011;54465;51.230;22.504;2023-02-15T06:24:33;24.70;;;13.50;;
32946;SDS011;54465;51.230;22.504;2023-02-15T06:29:34;22.65;;;13.10;;
32946;SDS011;54465;51.230;22.504;2023-02-15T06:34:34;22.42;;;13.43;;
32946;SDS011;54465;51.230;22.504;2023-02-15T06:39:35;23.08;;;13.23;;
32946;SDS011;54465;51.230;22.504;2023-02-15T06:44:35;23.23;;;13.30;;
32946;SDS011;54465;51.230;22.504;2023-02-15T06:49:36;29.52;;;15.18;;
32946;SDS011;54465;51.230;22.504;2023-02-15T06:54:37;23.08;;;13.80;;
32946;SDS011;54465;51.230;22.504;2023-02-15T06:59:37;25.38;;;14.32;;
32946;SDS011;54465;51.230;22.504;2023-02-15T07:04:38;26.77;;;14.25;;
32946;SDS011;54465;51.230;22.504;2023-02-15T07:09:38;28.20;;;14.15;;
32946;SDS011;54465;51.230;22.504;2023-02-15T07:14:39;26.50;;;14.75;;
32946;SDS011;54465;51.230;22.504;2023-02-15T07:19:40;24.13;;;12.30;;
32946;SDS011;54465;51.230;22.504;2023-02-15T07:24:41;21.77;;;12.43;;
32946;SDS011;54465;51.230;22.504;2023-02-15T07:29:41;22.30;;;14.20;;
32946;SDS011;54465;51.230;22.504;2023-02-15T07:34:42;24.85;;;14.63;;
32946;SDS011;54465;51.230;22.504;2023-02-15T07:39:42;21.40;;;12.82;;
32946;SDS011;54465;51.230;22.504;2023-02-15T07:44:43;26.63;;;13.88;;
32946;SDS011;54465;51.230;22.504;2023-02-15T07:49:44;16.05;;;10.57;;
32946;SDS011;54465;51.230;22.504;2023-02-15T07:54:44;18.90;;;11.73;;
32946;SDS011;54465;51.230;22.504;2023-02-15T07:59:45;20.67;;;12.68;;
32946;SDS011;54465;51.230;22.504;2023-02-15T08:04:45;23.50;;;13.05;;
32946;SDS011;54465;51.230;22.504;2023-02-15T08:09:46;26.13;;;13.52;;
32946;SDS011;54465;51.230;22.504;2023-02-15T08:14:46;24.02;;;13.95;;
32946;SDS011;54465;51.230;22.504;2023-02-15T08:19:47;25.67;;;14.20;;
32946;SDS011;54465;51.230;22.504;2023-02-15T08:24:47;23.48;;;13.80;;
32946;SDS011;54465;51.230;22.504;2023-02-15T08:29:48;24.15;;;14.60;;
32946;SDS011;54465;51.230;22.504;2023-02-15T08:34:48;24.60;;;13.43;;
32946;SDS011;54465;51.230;22.504;2023-02-15T08:39:49;28.45;;;16.88;;
32946;SDS011;54465;51.230;22.504;2023-02-15T08:44:49;26.70;;;14.45;;
32946;SDS011;54465;51.230;22.504;2023-02-15T08:49:51;27.05;;;15.13;;
32946;SDS011;54465;51.230;22.504;2023-02-15T08:54:52;27.70;;;15.18;;
32946;SDS011;54465;51.230;22.504;2023-02-15T08:59:52;26.02;;;14.38;;
32946;SDS011;54465;51.230;22.504;2023-02-15T09:04:55;25.38;;;14.60;;
32946;SDS011;54465;51.230;22.504;2023-02-15T09:09:55;25.48;;;15.00;;
32946;SDS011;54465;51.230;22.504;2023-02-15T09:14:56;27.58;;;15.45;;
32946;SDS011;54465;51.230;22.504;2023-02-15T09:19:56;22.88;;;12.88;;
32946;SDS011;54465;51.230;22.504;2023-02-15T09:24:57;24.08;;;13.85;;
32946;SDS011;54465;51.230;22.504;2023-02-15T09:29:57;25.02;;;13.57;;
32946;SDS011;54465;51.230;22.504;2023-02-15T09:34:57;25.52;;;14.05;;
32946;SDS011;54465;51.230;22.504;2023-02-15T09:39:58;26.98;;;15.35;;
32946;SDS011;54465;51.230;22.504;2023-02-15T09:45:07;25.30;;;13.75;;
32946;SDS011;54465;51.230;22.504;2023-02-15T09:55:46;24.05;;;13.48;;
32946;SDS011;54465;51.230;22.504;2023-02-15T10:00:58;23.80;;;13.07;;
32946;SDS011;54465;51.230;22.504;2023-02-15T10:11:12;22.20;;;13.15;;
32946;SDS011;54465;51.230;22.504;2023-02-15T10:21:51;19.83;;;11.60;;
32946;SDS011;54465;51.230;22.504;2023-02-15T10:26:56;17.40;;;10.10;;
32946;SDS011;54465;51.230;22.504;2023-02-15T10:37:31;17.25;;;9.88;;
32946;SDS011;54465;51.230;22.504;2023-02-15T10:59:03;21.85;;;13.10;;
32946;SDS011;54465;51.230;22.504;2023-02-15T11:09:38;19.45;;;11.65;;
32946;SDS011;54465;51.230;22.504;2023-02-15T11:14:53;17.35;;;11.20;;
32946;SDS011;54465;51.230;22.504;2023-02-15T11:25:52;19.50;;;12.05;;
32946;SDS011;54465;51.230;22.504;2023-02-15T11:30:57;20.23;;;11.23;;
32946;SDS011;54465;51.230;22.504;2023-02-15T11:36:06;18.63;;;11.10;;
32946;SDS011;54465;51.230;22.504;2023-02-15T11:41:19;16.02;;;10.48;;
32946;SDS011;54465;51.230;22.504;2023-02-15T11:46:24;17.08;;;10.82;;
32946;SDS011;54465;51.230;22.504;2023-02-15T11:51:24;19.58;;;12.02;;
32946;SDS011;54465;51.230;22.504;2023-02-15T11:56:27;17.35;;;10.93;;
32946;SDS011;54465;51.230;22.504;2023-02-15T12:06:38;17.50;;;10.57;;
32946;SDS011;54465;51.230;22.504;2023-02-15T12:11:43;16.25;;;10.20;;
32946;SDS011;54465;51.230;22.504;2023-02-15T12:16:46;14.90;;;9.80;;
32946;SDS011;54465;51.230;22.504;2023-02-15T12:21:49;16.88;;;10.57;;
32946;SDS011;54465;51.230;22.504;2023-02-15T12:32:01;20.23;;;11.75;;
32946;SDS011;54465;51.230;22.504;2023-02-15T12:37:07;18.02;;;11.13;;
32946;SDS011;54465;51.230;22.504;2023-02-15T12:42:16;15.60;;;10.75;;
32946;SDS011;54465;51.230;22.504;2023-02-15T12:47:18;19.90;;;12.25;;
32946;SDS011;54465;51.230;22.504;2023-02-15T12:57:21;17.77;;;11.75;;
32946;SDS011;54465;51.230;22.504;2023-02-15T13:02:30;19.38;;;11.50;;
32946;SDS011;54465;51.230;22.504;2023-02-15T13:07:35;19.38;;;12.52;;
32946;SDS011;54465;51.230;22.504;2023-02-15T13:12:36;17.40;;;11.63;;
32946;SDS011;54465;51.230;22.504;2023-02-15T13:17:37;16.75;;;10.95;;
32946;SDS011;54465;51.230;22.504;2023-02-15T13:22:39;17.88;;;11.43;;
32946;SDS011;54465;51.230;22.504;2023-02-15T13:27:43;18.05;;;11.27;;
32946;SDS011;54465;51.230;22.504;2023-02-15T13:32:44;17.70;;;11.18;;
32946;SDS011;54465;51.230;22.504;2023-02-15T13:42:50;19.35;;;13.00;;
32946;SDS011;54465;51.230;22.504;2023-02-15T13:53:39;17.58;;;11.43;;
32946;SDS011;54465;51.230;22.504;2023-02-15T13:59:12;17.33;;;11.82;;
32946;SDS011;54465;51.230;22.504;2023-02-15T14:09:53;20.75;;;12.90;;
32946;SDS011;54465;51.230;22.504;2023-02-15T14:20:07;18.77;;;11.30;;
32946;SDS011;54465;51.230;22.504;2023-02-15T14:25:25;18.45;;;12.48;;
32946;SDS011;54465;51.230;22.504;2023-02-15T14:30:31;18.83;;;12.95;;
32946;SDS011;54465;51.230;22.504;2023-02-15T14:35:34;17.92;;;12.68;;
32946;SDS011;54465;51.230;22.504;2023-02-15T15:07:17;25.30;;;16.10;;
32946;SDS011;54465;51.230;22.504;2023-02-15T15:22:33;25.70;;;16.58;;
32946;SDS011;54465;51.230;22.504;2023-02-15T15:37:51;21.13;;;14.35;;
32946;SDS011;54465;51.230;22.504;2023-02-15T15:43:10;21.65;;;12.65;;
32946;SDS011;54465;51.230;22.504;2023-02-15T15:48:32;22.20;;;14.55;;
32946;SDS011;54465;51.230;22.504;2023-02-15T15:53:37;22.10;;;14.77;;
32946;SDS011;54465;51.230;22.504;2023-02-15T15:58:43;26.05;;;15.77;;
32946;SDS011;54465;51.230;22.504;2023-02-15T16:03:49;24.60;;;15.15;;
32946;SDS011;54465;51.230;22.504;2023-02-15T16:08:51;23.55;;;14.25;;
32946;SDS011;54465;51.230;22.504;2023-02-15T16:13:51;26.23;;;15.38;;
32946;SDS011;54465;51.230;22.504;2023-02-15T16:18:53;24.95;;;15.20;;
32946;SDS011;54465;51.230;22.504;2023-02-15T16:29:18;26.55;;;15.82;;
32946;SDS011;54465;51.230;22.504;2023-02-15T16:34:26;25.30;;;14.63;;
32946;SDS011;54465;51.230;22.504;2023-02-15T16:39:31;28.90;;;16.58;;
32946;SDS011;54465;51.230;22.504;2023-02-15T16:44:40;22.73;;;13.73;;
32946;SDS011;54465;51.230;22.504;2023-02-15T16:49:43;22.88;;;14.70;;
32946;SDS011;54465;51.230;22.504;2023-02-15T16:54:45;27.20;;;14.30;;
32946;SDS011;54465;51.230;22.504;2023-02-15T16:59:46;25.55;;;15.93;;
32946;SDS011;54465;51.230;22.504;2023-02-15T17:10:35;26.25;;;15.85;;
32946;SDS011;54465;51.230;22.504;2023-02-15T17:15:37;30.88;;;15.00;;
32946;SDS011;54465;51.230;22.504;2023-02-15T17:20:39;30.35;;;16.77;;
32946;SDS011;54465;51.230;22.504;2023-02-15T17:25:41;29.77;;;16.63;;
32946;SDS011;54465;51.230;22.504;2023-02-15T17:30:43;28.13;;;16.33;;
32946;SDS011;54465;51.230;22.504;2023-02-15T17:36:01;28.63;;;16.83;;
32946;SDS011;54465;51.230;22.504;2023-02-15T17:41:23;28.08;;;16.38;;
32946;SDS011;54465;51.230;22.504;2023-02-15T17:46:27;28.65;;;16.77;;
32946;SDS011;54465;51.230;22.504;2023-02-15T17:51:32;24.67;;;15.38;;
32946;SDS011;54465;51.230;22.504;2023-02-15T17:56:35;28.27;;;16.15;;
32946;SDS011;54465;51.230;22.504;2023-02-15T18:01:38;30.42;;;17.42;;
32946;SDS011;54465;51.230;22.504;2023-02-15T18:12:26;40.10;;;20.15;;
32946;SDS011;54465;51.230;22.504;2023-02-15T18:22:35;58.75;;;30.92;;
32946;SDS011;54465;51.230;22.504;2023-02-15T18:27:36;61.95;;;32.70;;
32946;SDS011;54465;51.230;22.504;2023-02-15T18:32:36;68.03;;;34.35;;
32946;SDS011;54465;51.230;22.504;2023-02-15T18:37:38;73.18;;;38.20;;
32946;SDS011;54465;51.230;22.504;2023-02-15T18:42:39;82.45;;;41.15;;
32946;SDS011;54465;51.230;22.504;2023-02-15T18:47:46;79.57;;;41.60;;
32946;SDS011;54465;51.230;22.504;2023-02-15T18:52:47;80.30;;;39.95;;
32946;SDS011;54465;51.230;22.504;2023-02-15T18:57:51;83.82;;;42.45;;
32946;SDS011;54465;51.230;22.504;2023-02-15T19:02:55;82.97;;;42.25;;
32946;SDS011;54465;51.230;22.504;2023-02-15T19:07:56;81.00;;;42.10;;
32946;SDS011;54465;51.230;22.504;2023-02-15T19:12:58;74.40;;;38.63;;
32946;SDS011;54465;51.230;22.504;2023-02-15T19:17:58;67.68;;;35.80;;
32946;SDS011;54465;51.230;22.504;2023-02-15T19:22:59;68.03;;;37.72;;
32946;SDS011;54465;51.230;22.504;2023-02-15T19:28:00;64.32;;;33.85;;
32946;SDS011;54465;51.230;22.504;2023-02-15T19:33:08;69.03;;;34.03;;
32946;SDS011;54465;51.230;22.504;2023-02-15T19:38:17;62.05;;;33.08;;
32946;SDS011;54465;51.230;22.504;2023-02-15T19:43:19;67.43;;;33.72;;
32946;SDS011;54465;51.230;22.504;2023-02-15T19:48:22;57.60;;;32.42;;
32946;SDS011;54465;51.230;22.504;2023-02-15T19:53:25;63.47;;;32.78;;
32946;SDS011;54465;51.230;22.504;2023-02-15T19:58:27;60.60;;;29.85;;
32946;SDS011;54465;51.230;22.504;2023-02-15T20:03:27;51.17;;;27.83;;
32946;SDS011;54465;51.230;22.504;2023-02-15T20:08:28;48.15;;;24.27;;
32946;SDS011;54465;51.230;22.504;2023-02-15T20:13:29;44.30;;;23.30;;
32946;SDS011;54465;51.230;22.504;2023-02-15T20:18:30;42.55;;;22.63;;
32946;SDS011;54465;51.230;22.504;2023-02-15T20:23:32;38.88;;;20.77;;
32946;SDS011;54465;51.230;22.504;2023-02-15T20:28:34;39.75;;;21.42;;
32946;SDS011;54465;51.230;22.504;2023-02-15T20:33:35;55.45;;;27.05;;
32946;SDS011;54465;51.230;22.504;2023-02-15T20:38:35;54.53;;;27.35;;
32946;SDS011;54465;51.230;22.504;2023-02-15T20:43:36;45.85;;;23.48;;
32946;SDS011;54465;51.230;22.504;2023-02-15T20:48:36;44.13;;;23.80;;
32946;SDS011;54465;51.230;22.504;2023-02-15T20:53:37;43.72;;;25.23;;
32946;SDS011;54465;51.230;22.504;2023-02-15T20:58:37;44.42;;;23.67;;
32946;SDS011;54465;51.230;22.504;2023-02-15T21:03:38;45.45;;;24.20;;
32946;SDS011;54465;51.230;22.504;2023-02-15T21:08:39;44.63;;;23.50;;
32946;SDS011;54465;51.230;22.504;2023-02-15T21:13:39;48.67;;;23.08;;
32946;SDS011;54465;51.230;22.504;2023-02-15T21:18:40;43.30;;;22.17;;
32946;SDS011;54465;51.230;22.504;2023-02-15T21:23:41;40.88;;;21.90;;
32946;SDS011;54465;51.230;22.504;2023-02-15T21:28:43;42.17;;;21.73;;
32946;SDS011;54465;51.230;22.504;2023-02-15T21:33:44;36.22;;;19.33;;
32946;SDS011;54465;51.230;22.504;2023-02-15T21:38:44;33.97;;;18.90;;
32946;SDS011;54465;51.230;22.504;2023-02-15T21:43:45;38.00;;;18.85;;
32946;SDS011;54465;51.230;22.504;2023-02-15T21:49:04;35.22;;;18.58;;
32946;SDS011;54465;51.230;22.504;2023-02-15T21:54:11;31.00;;;16.15;;
32946;SDS011;54465;51.230;22.504;2023-02-15T21:59:13;32.70;;;17.52;;
32946;SDS011;54465;51.230;22.504;2023-02-15T22:04:18;32.13;;;17.83;;
32946;SDS011;54465;51.230;22.504;2023-02-15T22:09:21;30.25;;;16.65;;
32946;SDS011;54465;51.230;22.504;2023-02-15T22:14:45;36.20;;;18.20;;
32946;SDS011;54465;51.230;22.504;2023-02-15T22:19:45;33.63;;;16.65;;
32946;SDS011;54465;51.230;22.504;2023-02-15T22:24:47;36.13;;;18.88;;
32946;SDS011;54465;51.230;22.504;2023-02-15T22:29:48;30.05;;;16.85;;
32946;SDS011;54465;51.230;22.504;2023-02-15T22:34:49;33.53;;;18.80;;
32946;SDS011;54465;51.230;22.504;2023-02-15T22:39:50;30.70;;;17.27;;
32946;SDS011;54465;51.230;22.504;2023-02-15T22:44:51;32.95;;;17.63;;
32946;SDS011;54465;51.230;22.504;2023-02-15T22:49:54;33.95;;;17.60;;
32946;SDS011;54465;51.230;22.504;2023-02-15T22:54:54;32.85;;;18.02;;
32946;SDS011;54465;51.230;22.504;2023-02-15T22:59:55;29.08;;;15.73;;
32946;SDS011;54465;51.230;22.504;2023-02-15T23:04:55;28.38;;;15.60;;
32946;SDS011;54465;51.230;22.504;2023-02-15T23:09:56;23.77;;;13.57;;
32946;SDS011;54465;51.230;22.504;2023-02-15T23:14:56;28.23;;;15.20;;
32946;SDS011;54465;51.230;22.504;2023-02-15T23:19:57;30.58;;;15.73;;
32946;SDS011;54465;51.230;22.504;2023-02-15T23:24:57;24.30;;;13.98;;
32946;SDS011;54465;51.230;22.504;2023-02-15T23:29:58;26.25;;;14.23;;
32946;SDS011;54465;51.230;22.504;2023-02-15T23:34:58;26.83;;;14.23;;
32946;SDS011;54465;51.230;22.504;2023-02-15T23:39:59;25.52;;;14.38;;
32946;SDS011;54465;51.230;22.504;2023-02-15T23:45:26;28.37;;;13.77;;
32946;SDS011;54465;51.230;22.504;2023-02-15T23:50:27;30.48;;;14.30;;
32946;SDS011;54465;51.230;22.504;2023-02-15T23:55:46;23.48;;;14.10;;
